sensor_id;sensor_type;location;lat;lon;timestamp;temperature;humidity
13198;DHT22;6664;52.514;13.440;2022-07-23T00:00:57;18.30;91.00
13198;DHT22;6664;52.514;13.440;2022-07-23T00:03:28;18.20;91.10
13198;DHT22;6664;52.514;13.440;2022-07-23T00:05:55;18.10;91.40
13198;DHT22;6664;52.514;13.440;2022-07-23T00:08:22;18.00;91.90
13198;DHT22;6664;52.514;13.440;2022-07-23T00:10:49;18.10;91.40
13198;DHT22;6664;52.514;13.440;2022-07-23T00:13:16;18.10;90.80
13198;DHT22;6664;52.514;13.440;2022-07-23T00:15:43;18.10;90.50
13198;DHT22;6664;52.514;13.440;2022-07-23T00:18:13;18.10;90.40
13198;DHT22;6664;52.514;13.440;2022-07-23T00:20:43;18.10;90.10
13198;DHT22;6664;52.514;13.440;2022-07-23T00:23:10;18.00;88.40
13198;DHT22;6664;52.514;13.440;2022-07-23T00:25:39;18.00;89.30
13198;DHT22;6664;52.514;13.440;2022-07-23T00:28:06;18.10;86.70
13198;DHT22;6664;52.514;13.440;2022-07-23T00:30:33;18.20;86.80
13198;DHT22;6664;52.514;13.440;2022-07-23T00:33:05;18.20;85.50
13198;DHT22;6664;52.514;13.440;2022-07-23T00:35:34;18.20;85.40
13198;DHT22;6664;52.514;13.440;2022-07-23T00:38:05;18.10;85.30
13198;DHT22;6664;52.514;13.440;2022-07-23T00:40:32;18.10;86.00
13198;DHT22;6664;52.514;13.440;2022-07-23T00:43:00;18.00;86.60
13198;DHT22;6664;52.514;13.440;2022-07-23T00:45:28;18.00;86.60
13198;DHT22;6664;52.514;13.440;2022-07-23T00:47:56;18.00;87.80
13198;DHT22;6664;52.514;13.440;2022-07-23T00:50:24;18.00;87.20
13198;DHT22;6664;52.514;13.440;2022-07-23T00:52:52;18.00;87.20
13198;DHT22;6664;52.514;13.440;2022-07-23T00:55:19;18.10;87.20
13198;DHT22;6664;52.514;13.440;2022-07-23T00:57:48;18.10;87.00
13198;DHT22;6664;52.514;13.440;2022-07-23T01:00:15;18.00;87.40
13198;DHT22;6664;52.514;13.440;2022-07-23T01:02:42;18.00;87.20
13198;DHT22;6664;52.514;13.440;2022-07-23T01:05:12;17.90;87.30
13198;DHT22;6664;52.514;13.440;2022-07-23T01:07:42;17.90;88.10
13198;DHT22;6664;52.514;13.440;2022-07-23T01:10:09;17.90;89.20
13198;DHT22;6664;52.514;13.440;2022-07-23T01:12:55;17.90;89.50
13198;DHT22;6664;52.514;13.440;2022-07-23T01:15:31;17.80;89.80
13198;DHT22;6664;52.514;13.440;2022-07-23T01:18:01;17.70;90.10
13198;DHT22;6664;52.514;13.440;2022-07-23T01:20:29;17.70;90.40
13198;DHT22;6664;52.514;13.440;2022-07-23T01:22:56;17.60;91.00
13198;DHT22;6664;52.514;13.440;2022-07-23T01:25:23;17.50;91.20
13198;DHT22;6664;52.514;13.440;2022-07-23T01:27:55;17.50;91.70
13198;DHT22;6664;52.514;13.440;2022-07-23T01:30:22;17.40;92.10
13198;DHT22;6664;52.514;13.440;2022-07-23T01:32:49;17.30;92.50
13198;DHT22;6664;52.514;13.440;2022-07-23T01:35:19;17.20;93.00
13198;DHT22;6664;52.514;13.440;2022-07-23T01:38:11;17.20;93.50
13198;DHT22;6664;52.514;13.440;2022-07-23T01:40:55;17.10;93.90
13198;DHT22;6664;52.514;13.440;2022-07-23T01:43:23;17.10;94.20
13198;DHT22;6664;52.514;13.440;2022-07-23T01:45:53;17.10;94.40
13198;DHT22;6664;52.514;13.440;2022-07-23T01:48:24;17.10;94.90
13198;DHT22;6664;52.514;13.440;2022-07-23T01:50:51;17.00;94.90
13198;DHT22;6664;52.514;13.440;2022-07-23T01:53:18;17.10;95.20
13198;DHT22;6664;52.514;13.440;2022-07-23T01:55:48;17.10;95.10
13198;DHT22;6664;52.514;13.440;2022-07-23T01:58:15;17.10;95.30
13198;DHT22;6664;52.514;13.440;2022-07-23T02:00:49;17.10;95.00
13198;DHT22;6664;52.514;13.440;2022-07-23T02:03:16;17.20;94.20
13198;DHT22;6664;52.514;13.440;2022-07-23T02:05:45;17.30;93.80
13198;DHT22;6664;52.514;13.440;2022-07-23T02:08:14;17.30;93.30
13198;DHT22;6664;52.514;13.440;2022-07-23T02:10:42;17.40;92.70
13198;DHT22;6664;52.514;13.440;2022-07-23T02:13:14;17.40;92.10
13198;DHT22;6664;52.514;13.440;2022-07-23T02:15:46;17.40;92.10
13198;DHT22;6664;52.514;13.440;2022-07-23T02:18:13;17.40;91.60
13198;DHT22;6664;52.514;13.440;2022-07-23T02:20:41;17.40;91.30
13198;DHT22;6664;52.514;13.440;2022-07-23T02:23:10;17.50;91.30
13198;DHT22;6664;52.514;13.440;2022-07-23T02:25:46;17.50;91.00
13198;DHT22;6664;52.514;13.440;2022-07-23T02:28:12;17.50;90.90
13198;DHT22;6664;52.514;13.440;2022-07-23T02:30:42;17.40;91.00
13198;DHT22;6664;52.514;13.440;2022-07-23T02:33:10;17.40;91.00
13198;DHT22;6664;52.514;13.440;2022-07-23T02:35:37;17.30;91.40
13198;DHT22;6664;52.514;13.440;2022-07-23T02:38:04;17.30;91.60
13198;DHT22;6664;52.514;13.440;2022-07-23T02:40:31;17.30;91.80
13198;DHT22;6664;52.514;13.440;2022-07-23T02:43:00;17.30;92.00
13198;DHT22;6664;52.514;13.440;2022-07-23T02:45:28;17.20;92.00
13198;DHT22;6664;52.514;13.440;2022-07-23T02:47:56;17.20;92.00
13198;DHT22;6664;52.514;13.440;2022-07-23T02:50:23;17.10;92.20
13198;DHT22;6664;52.514;13.440;2022-07-23T02:52:51;17.10;92.60
13198;DHT22;6664;52.514;13.440;2022-07-23T02:55:20;17.00;93.00
13198;DHT22;6664;52.514;13.440;2022-07-23T02:57:50;17.00;93.50
13198;DHT22;6664;52.514;13.440;2022-07-23T03:00:17;16.90;94.00
13198;DHT22;6664;52.514;13.440;2022-07-23T03:02:44;16.80;94.10
13198;DHT22;6664;52.514;13.440;2022-07-23T03:05:11;16.80;94.60
13198;DHT22;6664;52.514;13.440;2022-07-23T03:07:38;16.80;94.70
13198;DHT22;6664;52.514;13.440;2022-07-23T03:10:07;16.80;94.80
13198;DHT22;6664;52.514;13.440;2022-07-23T03:12:37;16.80;94.90
13198;DHT22;6664;52.514;13.440;2022-07-23T03:15:04;16.80;95.10
13198;DHT22;6664;52.514;13.440;2022-07-23T03:17:36;16.80;95.30
13198;DHT22;6664;52.514;13.440;2022-07-23T03:20:03;16.80;95.60
13198;DHT22;6664;52.514;13.440;2022-07-23T03:22:30;16.80;95.70
13198;DHT22;6664;52.514;13.440;2022-07-23T03:24:57;16.80;95.30
13198;DHT22;6664;52.514;13.440;2022-07-23T03:27:25;16.80;95.50
13198;DHT22;6664;52.514;13.440;2022-07-23T03:29:54;16.70;95.60
13198;DHT22;6664;52.514;13.440;2022-07-23T03:32:21;16.70;95.70
13198;DHT22;6664;52.514;13.440;2022-07-23T03:34:54;16.50;96.00
13198;DHT22;6664;52.514;13.440;2022-07-23T03:37:25;16.40;96.10
13198;DHT22;6664;52.514;13.440;2022-07-23T03:39:52;16.30;96.00
13198;DHT22;6664;52.514;13.440;2022-07-23T03:42:21;16.30;95.40
13198;DHT22;6664;52.514;13.440;2022-07-23T03:44:53;16.40;95.00
13198;DHT22;6664;52.514;13.440;2022-07-23T03:47:20;16.40;94.30
13198;DHT22;6664;52.514;13.440;2022-07-23T03:49:49;16.50;93.90
13198;DHT22;6664;52.514;13.440;2022-07-23T03:52:19;16.60;93.50
13198;DHT22;6664;52.514;13.440;2022-07-23T03:54:46;16.60;93.00
13198;DHT22;6664;52.514;13.440;2022-07-23T03:57:13;16.60;92.60
13198;DHT22;6664;52.514;13.440;2022-07-23T03:59:42;16.60;92.40
13198;DHT22;6664;52.514;13.440;2022-07-23T04:02:12;16.60;91.90
13198;DHT22;6664;52.514;13.440;2022-07-23T04:04:42;16.60;91.80
13198;DHT22;6664;52.514;13.440;2022-07-23T04:07:11;16.70;91.40
13198;DHT22;6664;52.514;13.440;2022-07-23T04:09:40;16.70;91.20
13198;DHT22;6664;52.514;13.440;2022-07-23T04:12:12;16.70;90.50
13198;DHT22;6664;52.514;13.440;2022-07-23T04:14:41;16.70;89.40
13198;DHT22;6664;52.514;13.440;2022-07-23T04:17:08;16.70;90.00
13198;DHT22;6664;52.514;13.440;2022-07-23T04:19:35;16.60;89.60
13198;DHT22;6664;52.514;13.440;2022-07-23T04:22:12;16.70;90.00
13198;DHT22;6664;52.514;13.440;2022-07-23T04:24:39;16.70;90.20
13198;DHT22;6664;52.514;13.440;2022-07-23T04:27:06;16.70;88.40
13198;DHT22;6664;52.514;13.440;2022-07-23T04:29:33;16.70;87.80
13198;DHT22;6664;52.514;13.440;2022-07-23T04:32:00;16.70;86.70
13198;DHT22;6664;52.514;13.440;2022-07-23T04:34:27;16.70;86.90
13198;DHT22;6664;52.514;13.440;2022-07-23T04:36:54;16.80;85.80
13198;DHT22;6664;52.514;13.440;2022-07-23T04:39:21;16.80;85.00
13198;DHT22;6664;52.514;13.440;2022-07-23T04:41:48;16.80;84.20
13198;DHT22;6664;52.514;13.440;2022-07-23T04:44:15;16.90;85.70
13198;DHT22;6664;52.514;13.440;2022-07-23T04:46:42;16.60;92.10
13198;DHT22;6664;52.514;13.440;2022-07-23T04:49:09;16.60;91.50
13198;DHT22;6664;52.514;13.440;2022-07-23T04:51:35;16.50;91.70
13198;DHT22;6664;52.514;13.440;2022-07-23T04:54:05;16.60;92.70
13198;DHT22;6664;52.514;13.440;2022-07-23T04:56:34;16.50;91.10
13198;DHT22;6664;52.514;13.440;2022-07-23T04:59:01;16.50;92.10
13198;DHT22;6664;52.514;13.440;2022-07-23T05:01:31;16.50;93.90
13198;DHT22;6664;52.514;13.440;2022-07-23T05:03:58;16.40;94.80
13198;DHT22;6664;52.514;13.440;2022-07-23T05:06:25;16.30;95.50
13198;DHT22;6664;52.514;13.440;2022-07-23T05:08:52;16.30;96.50
13198;DHT22;6664;52.514;13.440;2022-07-23T05:11:18;16.20;99.20
13198;DHT22;6664;52.514;13.440;2022-07-23T05:13:52;16.10;98.80
13198;DHT22;6664;52.514;13.440;2022-07-23T05:16:19;16.00;99.60
13198;DHT22;6664;52.514;13.440;2022-07-23T05:18:46;16.10;99.20
13198;DHT22;6664;52.514;13.440;2022-07-23T05:21:15;16.10;99.30
13198;DHT22;6664;52.514;13.440;2022-07-23T05:23:42;16.20;99.90
13198;DHT22;6664;52.514;13.440;2022-07-23T05:26:09;16.10;99.10
13198;DHT22;6664;52.514;13.440;2022-07-23T05:28:43;16.20;99.10
13198;DHT22;6664;52.514;13.440;2022-07-23T05:31:15;16.10;99.20
13198;DHT22;6664;52.514;13.440;2022-07-23T05:33:42;16.00;99.70
13198;DHT22;6664;52.514;13.440;2022-07-23T05:36:11;16.10;99.90
13198;DHT22;6664;52.514;13.440;2022-07-23T05:38:40;16.10;99.90
13198;DHT22;6664;52.514;13.440;2022-07-23T05:41:07;16.20;99.90
13198;DHT22;6664;52.514;13.440;2022-07-23T05:43:34;16.20;99.90
13198;DHT22;6664;52.514;13.440;2022-07-23T05:46:01;16.30;99.90
13198;DHT22;6664;52.514;13.440;2022-07-23T05:48:28;16.30;99.90
13198;DHT22;6664;52.514;13.440;2022-07-23T05:50:55;16.30;99.90
13198;DHT22;6664;52.514;13.440;2022-07-23T05:53:22;16.20;99.90
13198;DHT22;6664;52.514;13.440;2022-07-23T05:55:51;16.20;99.90
13198;DHT22;6664;52.514;13.440;2022-07-23T05:58:20;16.30;99.90
13198;DHT22;6664;52.514;13.440;2022-07-23T06:00:47;16.30;99.90
13198;DHT22;6664;52.514;13.440;2022-07-23T06:03:14;16.30;99.90
13198;DHT22;6664;52.514;13.440;2022-07-23T06:05:41;16.30;99.90
13198;DHT22;6664;52.514;13.440;2022-07-23T06:08:08;16.30;99.90
13198;DHT22;6664;52.514;13.440;2022-07-23T06:10:35;16.40;99.90
13198;DHT22;6664;52.514;13.440;2022-07-23T06:13:02;16.40;99.90
13198;DHT22;6664;52.514;13.440;2022-07-23T06:15:31;16.30;99.90
13198;DHT22;6664;52.514;13.440;2022-07-23T06:18:00;16.40;99.90
13198;DHT22;6664;52.514;13.440;2022-07-23T06:20:31;16.40;99.90
13198;DHT22;6664;52.514;13.440;2022-07-23T06:22:58;16.30;99.90
13198;DHT22;6664;52.514;13.440;2022-07-23T06:25:25;16.50;99.90
13198;DHT22;6664;52.514;13.440;2022-07-23T06:27:53;16.30;99.90
13198;DHT22;6664;52.514;13.440;2022-07-23T06:30:25;16.30;99.90
13198;DHT22;6664;52.514;13.440;2022-07-23T06:32:57;16.30;99.90
13198;DHT22;6664;52.514;13.440;2022-07-23T06:35:28;16.40;99.90
13198;DHT22;6664;52.514;13.440;2022-07-23T06:37:55;16.40;99.90
13198;DHT22;6664;52.514;13.440;2022-07-23T06:40:22;16.40;99.90
13198;DHT22;6664;52.514;13.440;2022-07-23T06:42:49;16.50;99.90
13198;DHT22;6664;52.514;13.440;2022-07-23T06:45:20;16.40;99.90
13198;DHT22;6664;52.514;13.440;2022-07-23T06:47:47;16.50;99.90
13198;DHT22;6664;52.514;13.440;2022-07-23T06:50:14;16.70;99.90
13198;DHT22;6664;52.514;13.440;2022-07-23T06:52:41;16.80;99.90
13198;DHT22;6664;52.514;13.440;2022-07-23T06:55:09;16.90;99.90
13198;DHT22;6664;52.514;13.440;2022-07-23T06:57:36;17.10;99.90
13198;DHT22;6664;52.514;13.440;2022-07-23T07:00:03;17.20;99.90
13198;DHT22;6664;52.514;13.440;2022-07-23T07:02:33;17.20;99.90
13198;DHT22;6664;52.514;13.440;2022-07-23T07:05:03;17.20;99.90
13198;DHT22;6664;52.514;13.440;2022-07-23T07:07:33;17.20;99.90
13198;DHT22;6664;52.514;13.440;2022-07-23T07:10:03;17.20;99.90
13198;DHT22;6664;52.514;13.440;2022-07-23T07:12:39;17.10;99.90
13198;DHT22;6664;52.514;13.440;2022-07-23T07:15:06;17.10;99.90
13198;DHT22;6664;52.514;13.440;2022-07-23T07:17:34;17.30;99.90
13198;DHT22;6664;52.514;13.440;2022-07-23T07:20:04;17.30;99.90
13198;DHT22;6664;52.514;13.440;2022-07-23T07:22:31;17.60;99.90
13198;DHT22;6664;52.514;13.440;2022-07-23T07:24:58;17.80;99.90
13198;DHT22;6664;52.514;13.440;2022-07-23T07:27:25;18.10;99.90
13198;DHT22;6664;52.514;13.440;2022-07-23T07:29:52;18.30;99.90
13198;DHT22;6664;52.514;13.440;2022-07-23T07:32:20;18.40;99.90
13198;DHT22;6664;52.514;13.440;2022-07-23T07:35:11;18.50;99.90
13198;DHT22;6664;52.514;13.440;2022-07-23T07:37:41;18.60;98.80
13198;DHT22;6664;52.514;13.440;2022-07-23T07:40:08;18.70;97.40
13198;DHT22;6664;52.514;13.440;2022-07-23T07:42:47;19.00;96.40
13198;DHT22;6664;52.514;13.440;2022-07-23T07:45:17;19.40;95.40
13198;DHT22;6664;52.514;13.440;2022-07-23T07:47:48;19.60;92.80
13198;DHT22;6664;52.514;13.440;2022-07-23T07:50:15;19.70;92.00
13198;DHT22;6664;52.514;13.440;2022-07-23T07:52:43;19.70;90.50
13198;DHT22;6664;52.514;13.440;2022-07-23T07:55:10;19.60;90.30
13198;DHT22;6664;52.514;13.440;2022-07-23T07:57:40;19.40;91.30
13198;DHT22;6664;52.514;13.440;2022-07-23T08:00:08;19.40;91.80
13198;DHT22;6664;52.514;13.440;2022-07-23T08:02:50;19.60;90.80
13198;DHT22;6664;52.514;13.440;2022-07-23T08:05:27;19.60;90.20
13198;DHT22;6664;52.514;13.440;2022-07-23T08:07:59;19.50;89.00
13198;DHT22;6664;52.514;13.440;2022-07-23T08:10:27;19.20;89.90
13198;DHT22;6664;52.514;13.440;2022-07-23T08:12:55;19.10;90.90
13198;DHT22;6664;52.514;13.440;2022-07-23T08:15:29;19.00;90.60
13198;DHT22;6664;52.514;13.440;2022-07-23T08:18:00;19.10;91.40
13198;DHT22;6664;52.514;13.440;2022-07-23T08:20:27;19.10;91.30
13198;DHT22;6664;52.514;13.440;2022-07-23T08:23:05;19.10;92.10
13198;DHT22;6664;52.514;13.440;2022-07-23T08:25:35;18.70;93.40
13198;DHT22;6664;52.514;13.440;2022-07-23T08:28:08;18.70;92.30
13198;DHT22;6664;52.514;13.440;2022-07-23T08:30:39;18.90;92.20
13198;DHT22;6664;52.514;13.440;2022-07-23T08:33:11;18.80;87.90
13198;DHT22;6664;52.514;13.440;2022-07-23T08:36:00;18.80;86.00
13198;DHT22;6664;52.514;13.440;2022-07-23T08:38:31;19.10;87.60
13198;DHT22;6664;52.514;13.440;2022-07-23T08:41:08;19.10;87.00
13198;DHT22;6664;52.514;13.440;2022-07-23T08:43:37;19.10;87.30
13198;DHT22;6664;52.514;13.440;2022-07-23T08:46:06;19.20;86.40
13198;DHT22;6664;52.514;13.440;2022-07-23T08:48:34;19.30;86.60
13198;DHT22;6664;52.514;13.440;2022-07-23T08:51:10;19.20;86.00
13198;DHT22;6664;52.514;13.440;2022-07-23T08:53:40;19.40;85.30
13198;DHT22;6664;52.514;13.440;2022-07-23T08:56:08;19.30;86.40
13198;DHT22;6664;52.514;13.440;2022-07-23T08:58:35;19.20;86.40
13198;DHT22;6664;52.514;13.440;2022-07-23T09:01:02;19.20;86.60
13198;DHT22;6664;52.514;13.440;2022-07-23T09:03:32;19.00;85.10
13198;DHT22;6664;52.514;13.440;2022-07-23T09:06:00;19.10;83.40
13198;DHT22;6664;52.514;13.440;2022-07-23T09:08:41;19.30;84.00
13198;DHT22;6664;52.514;13.440;2022-07-23T09:11:10;19.20;81.30
13198;DHT22;6664;52.514;13.440;2022-07-23T09:13:49;19.20;81.30
13198;DHT22;6664;52.514;13.440;2022-07-23T09:16:26;19.20;82.70
13198;DHT22;6664;52.514;13.440;2022-07-23T09:19:04;19.60;80.60
13198;DHT22;6664;52.514;13.440;2022-07-23T09:21:38;20.00;76.80
13198;DHT22;6664;52.514;13.440;2022-07-23T09:24:09;20.70;74.90
13198;DHT22;6664;52.514;13.440;2022-07-23T09:26:48;20.60;72.00
13198;DHT22;6664;52.514;13.440;2022-07-23T09:29:20;20.70;71.70
13198;DHT22;6664;52.514;13.440;2022-07-23T09:36:48;20.40;71.80
13198;DHT22;6664;52.514;13.440;2022-07-23T09:39:26;20.10;72.00
13198;DHT22;6664;52.514;13.440;2022-07-23T09:41:59;20.10;73.70
13198;DHT22;6664;52.514;13.440;2022-07-23T09:44:55;19.80;73.50
13198;DHT22;6664;52.514;13.440;2022-07-23T09:47:26;19.70;73.20
13198;DHT22;6664;52.514;13.440;2022-07-23T09:49:59;19.50;74.10
13198;DHT22;6664;52.514;13.440;2022-07-23T09:52:46;19.60;75.50
13198;DHT22;6664;52.514;13.440;2022-07-23T09:55:17;20.10;74.40
13198;DHT22;6664;52.514;13.440;2022-07-23T09:57:46;20.80;72.20
13198;DHT22;6664;52.514;13.440;2022-07-23T10:00:31;20.90;71.00
13198;DHT22;6664;52.514;13.440;2022-07-23T10:02:59;21.40;70.10
13198;DHT22;6664;52.514;13.440;2022-07-23T10:05:29;21.70;67.80
13198;DHT22;6664;52.514;13.440;2022-07-23T10:08:01;21.70;64.60
13198;DHT22;6664;52.514;13.440;2022-07-23T10:10:28;21.70;64.30
13198;DHT22;6664;52.514;13.440;2022-07-23T10:12:56;21.90;63.10
13198;DHT22;6664;52.514;13.440;2022-07-23T10:15:24;23.00;60.40
13198;DHT22;6664;52.514;13.440;2022-07-23T10:17:56;23.40;58.40
13198;DHT22;6664;52.514;13.440;2022-07-23T10:20:23;23.60;58.60
13198;DHT22;6664;52.514;13.440;2022-07-23T10:23:09;23.00;56.50
13198;DHT22;6664;52.514;13.440;2022-07-23T10:37:18;22.30;55.90
13198;DHT22;6664;52.514;13.440;2022-07-23T10:43:13;22.10;57.30
13198;DHT22;6664;52.514;13.440;2022-07-23T10:45:47;22.70;56.50
13198;DHT22;6664;52.514;13.440;2022-07-23T10:48:20;22.70;55.90
13198;DHT22;6664;52.514;13.440;2022-07-23T10:51:12;22.40;56.30
13198;DHT22;6664;52.514;13.440;2022-07-23T10:56:50;22.50;56.10
13198;DHT22;6664;52.514;13.440;2022-07-23T10:59:20;22.00;57.20
13198;DHT22;6664;52.514;13.440;2022-07-23T11:01:50;22.00;58.20
13198;DHT22;6664;52.514;13.440;2022-07-23T11:04:18;22.10;57.80
13198;DHT22;6664;52.514;13.440;2022-07-23T11:09:38;22.90;56.70
13198;DHT22;6664;52.514;13.440;2022-07-23T11:22:49;25.10;50.90
13198;DHT22;6664;52.514;13.440;2022-07-23T11:27:50;25.50;47.40
13198;DHT22;6664;52.514;13.440;2022-07-23T11:35:42;25.00;46.20
13198;DHT22;6664;52.514;13.440;2022-07-23T11:38:16;24.60;47.40
13198;DHT22;6664;52.514;13.440;2022-07-23T11:40:47;24.20;47.30
13198;DHT22;6664;52.514;13.440;2022-07-23T11:43:18;24.30;47.70
13198;DHT22;6664;52.514;13.440;2022-07-23T11:45:52;24.20;48.40
13198;DHT22;6664;52.514;13.440;2022-07-23T11:48:29;24.60;46.90
13198;DHT22;6664;52.514;13.440;2022-07-23T11:50:58;25.10;45.70
13198;DHT22;6664;52.514;13.440;2022-07-23T11:53:30;25.70;45.00
13198;DHT22;6664;52.514;13.440;2022-07-23T11:56:10;25.70;45.00
13198;DHT22;6664;52.514;13.440;2022-07-23T11:58:40;25.10;44.00
13198;DHT22;6664;52.514;13.440;2022-07-23T12:01:22;25.70;44.30
13198;DHT22;6664;52.514;13.440;2022-07-23T12:03:54;25.50;44.80
13198;DHT22;6664;52.514;13.440;2022-07-23T12:06:24;25.70;43.70
13198;DHT22;6664;52.514;13.440;2022-07-23T12:08:53;25.70;43.90
13198;DHT22;6664;52.514;13.440;2022-07-23T12:11:22;25.80;43.20
13198;DHT22;6664;52.514;13.440;2022-07-23T12:14:00;26.50;42.30
13198;DHT22;6664;52.514;13.440;2022-07-23T12:16:28;27.10;41.30
13198;DHT22;6664;52.514;13.440;2022-07-23T12:18:56;26.40;40.60
13198;DHT22;6664;52.514;13.440;2022-07-23T12:21:23;27.50;40.00
13198;DHT22;6664;52.514;13.440;2022-07-23T12:23:50;27.10;38.10
13198;DHT22;6664;52.514;13.440;2022-07-23T12:26:19;27.60;37.50
13198;DHT22;6664;52.514;13.440;2022-07-23T12:28:52;28.70;35.70
13198;DHT22;6664;52.514;13.440;2022-07-23T12:31:26;28.70;35.10
13198;DHT22;6664;52.514;13.440;2022-07-23T12:33:54;28.10;34.20
13198;DHT22;6664;52.514;13.440;2022-07-23T12:36:37;27.90;35.20
13198;DHT22;6664;52.514;13.440;2022-07-23T12:39:07;28.30;34.40
13198;DHT22;6664;52.514;13.440;2022-07-23T12:41:53;28.50;34.20
13198;DHT22;6664;52.514;13.440;2022-07-23T12:44:21;28.10;34.80
13198;DHT22;6664;52.514;13.440;2022-07-23T12:46:52;30.90;33.40
13198;DHT22;6664;52.514;13.440;2022-07-23T12:49:27;30.30;28.50
13198;DHT22;6664;52.514;13.440;2022-07-23T12:51:56;28.30;32.10
13198;DHT22;6664;52.514;13.440;2022-07-23T12:54:27;30.40;33.30
13198;DHT22;6664;52.514;13.440;2022-07-23T12:56:54;36.80;24.50
13198;DHT22;6664;52.514;13.440;2022-07-23T12:59:22;39.80;17.10
13198;DHT22;6664;52.514;13.440;2022-07-23T13:01:58;38.60;16.10
13198;DHT22;6664;52.514;13.440;2022-07-23T13:04:26;41.30;14.20
13198;DHT22;6664;52.514;13.440;2022-07-23T13:06:58;41.20;8.80
13198;DHT22;6664;52.514;13.440;2022-07-23T13:09:32;36.80;12.90
13198;DHT22;6664;52.514;13.440;2022-07-23T13:12:07;33.00;19.20
13198;DHT22;6664;52.514;13.440;2022-07-23T13:14:37;31.80;22.30
13198;DHT22;6664;52.514;13.440;2022-07-23T13:17:07;30.40;24.90
13198;DHT22;6664;52.514;13.440;2022-07-23T13:19:35;28.80;27.30
13198;DHT22;6664;52.514;13.440;2022-07-23T13:22:04;28.10;29.40
13198;DHT22;6664;52.514;13.440;2022-07-23T13:24:54;27.60;30.80
13198;DHT22;6664;52.514;13.440;2022-07-23T13:27:23;27.10;32.40
13198;DHT22;6664;52.514;13.440;2022-07-23T13:29:50;26.80;33.90
13198;DHT22;6664;52.514;13.440;2022-07-23T13:32:19;29.00;33.70
13198;DHT22;6664;52.514;13.440;2022-07-23T13:34:46;36.50;23.80
13198;DHT22;6664;52.514;13.440;2022-07-23T13:37:17;34.20;19.70
13198;DHT22;6664;52.514;13.440;2022-07-23T13:39:44;35.90;17.70
13198;DHT22;6664;52.514;13.440;2022-07-23T13:42:12;38.50;14.40
13198;DHT22;6664;52.514;13.440;2022-07-23T13:44:40;34.30;17.10
13198;DHT22;6664;52.514;13.440;2022-07-23T13:47:13;34.50;17.10
13198;DHT22;6664;52.514;13.440;2022-07-23T13:49:40;32.40;20.40
13198;DHT22;6664;52.514;13.440;2022-07-23T13:52:07;34.40;18.60
13198;DHT22;6664;52.514;13.440;2022-07-23T13:54:34;32.60;20.20
13198;DHT22;6664;52.514;13.440;2022-07-23T13:57:01;30.00;23.40
13198;DHT22;6664;52.514;13.440;2022-07-23T13:59:30;29.30;26.00
13198;DHT22;6664;52.514;13.440;2022-07-23T14:01:57;28.70;27.10
13198;DHT22;6664;52.514;13.440;2022-07-23T14:04:47;28.00;29.20
13198;DHT22;6664;52.514;13.440;2022-07-23T14:07:14;27.30;30.70
13198;DHT22;6664;52.514;13.440;2022-07-23T14:09:42;26.90;31.80
13198;DHT22;6664;52.514;13.440;2022-07-23T14:12:10;26.80;32.40
13198;DHT22;6664;52.514;13.440;2022-07-23T14:14:37;26.80;32.70
13198;DHT22;6664;52.514;13.440;2022-07-23T14:17:05;27.30;32.40
13198;DHT22;6664;52.514;13.440;2022-07-23T14:19:39;27.90;31.40
13198;DHT22;6664;52.514;13.440;2022-07-23T14:22:06;27.40;31.60
13198;DHT22;6664;52.514;13.440;2022-07-23T14:24:34;30.00;27.30
13198;DHT22;6664;52.514;13.440;2022-07-23T14:27:04;36.00;19.80
13198;DHT22;6664;52.514;13.440;2022-07-23T14:29:34;33.70;19.00
13198;DHT22;6664;52.514;13.440;2022-07-23T14:32:04;35.70;18.50
13198;DHT22;6664;52.514;13.440;2022-07-23T14:34:32;34.90;16.10
13198;DHT22;6664;52.514;13.440;2022-07-23T14:37:04;30.50;21.40
13198;DHT22;6664;52.514;13.440;2022-07-23T14:39:31;30.50;22.30
13198;DHT22;6664;52.514;13.440;2022-07-23T14:42:02;30.40;23.50
13198;DHT22;6664;52.514;13.440;2022-07-23T14:44:30;30.00;23.40
13198;DHT22;6664;52.514;13.440;2022-07-23T14:46:57;29.70;24.30
13198;DHT22;6664;52.514;13.440;2022-07-23T14:49:26;29.00;25.40
13198;DHT22;6664;52.514;13.440;2022-07-23T14:51:54;28.00;27.20
13198;DHT22;6664;52.514;13.440;2022-07-23T14:54:27;28.90;27.50
13198;DHT22;6664;52.514;13.440;2022-07-23T14:56:55;27.90;27.00
13198;DHT22;6664;52.514;13.440;2022-07-23T14:59:22;28.20;26.90
13198;DHT22;6664;52.514;13.440;2022-07-23T15:01:50;28.20;27.10
13198;DHT22;6664;52.514;13.440;2022-07-23T15:04:19;27.50;28.80
13198;DHT22;6664;52.514;13.440;2022-07-23T15:07:03;27.50;29.00
13198;DHT22;6664;52.514;13.440;2022-07-23T15:09:31;27.00;28.80
13198;DHT22;6664;52.514;13.440;2022-07-23T15:11:58;26.80;30.10
13198;DHT22;6664;52.514;13.440;2022-07-23T15:14:25;26.60;31.30
13198;DHT22;6664;52.514;13.440;2022-07-23T15:17:00;26.80;30.30
13198;DHT22;6664;52.514;13.440;2022-07-23T15:19:27;26.60;30.50
13198;DHT22;6664;52.514;13.440;2022-07-23T15:21:56;26.30;30.80
13198;DHT22;6664;52.514;13.440;2022-07-23T15:24:23;26.70;30.50
13198;DHT22;6664;52.514;13.440;2022-07-23T15:26:50;27.10;30.10
13198;DHT22;6664;52.514;13.440;2022-07-23T15:29:19;26.00;31.00
13198;DHT22;6664;52.514;13.440;2022-07-23T15:31:49;25.90;31.20
13198;DHT22;6664;52.514;13.440;2022-07-23T15:34:28;25.80;32.00
13198;DHT22;6664;52.514;13.440;2022-07-23T15:37:00;25.90;32.00
13198;DHT22;6664;52.514;13.440;2022-07-23T15:39:27;26.00;31.90
13198;DHT22;6664;52.514;13.440;2022-07-23T15:41:55;26.20;31.90
13198;DHT22;6664;52.514;13.440;2022-07-23T15:44:24;25.90;31.60
13198;DHT22;6664;52.514;13.440;2022-07-23T15:46:56;25.60;32.00
13198;DHT22;6664;52.514;13.440;2022-07-23T15:49:25;25.60;32.50
13198;DHT22;6664;52.514;13.440;2022-07-23T15:51:57;25.50;32.80
13198;DHT22;6664;52.514;13.440;2022-07-23T15:54:24;25.20;32.80
13198;DHT22;6664;52.514;13.440;2022-07-23T15:56:52;26.40;30.80
13198;DHT22;6664;52.514;13.440;2022-07-23T15:59:21;27.80;27.70
13198;DHT22;6664;52.514;13.440;2022-07-23T16:01:55;26.30;28.50
13198;DHT22;6664;52.514;13.440;2022-07-23T16:04:22;25.80;30.10
13198;DHT22;6664;52.514;13.440;2022-07-23T16:06:50;25.20;30.60
13198;DHT22;6664;52.514;13.440;2022-07-23T16:09:17;24.90;31.80
13198;DHT22;6664;52.514;13.440;2022-07-23T16:11:45;24.80;32.60
13198;DHT22;6664;52.514;13.440;2022-07-23T16:14:12;24.90;32.60
13198;DHT22;6664;52.514;13.440;2022-07-23T16:16:40;24.90;32.20
13198;DHT22;6664;52.514;13.440;2022-07-23T16:19:07;24.80;32.40
13198;DHT22;6664;52.514;13.440;2022-07-23T16:21:35;24.80;32.40
13198;DHT22;6664;52.514;13.440;2022-07-23T16:24:03;24.80;32.50
13198;DHT22;6664;52.514;13.440;2022-07-23T16:26:30;24.70;32.70
13198;DHT22;6664;52.514;13.440;2022-07-23T16:28:57;25.10;32.70
13198;DHT22;6664;52.514;13.440;2022-07-23T16:31:27;24.80;32.20